Time;durP1;ratioP1;P1;durP2;ratioP2;P2;SDS_P1;SDS_P2;PMS_P1;PMS_P2;Temp;Humidity;BMP_temperature;BMP_pressure;BME280_temperature;BME280_humidity;BME280_pressure;Samples;Min_cycle;Max_cycle;Signal;HPM_P1;HPM_P2
2021/08/04 00:01:46;;;;;;;2.65;2.50;;;;;;;;;;4977698;28;24424;-52
2021/08/04 00:04:11;;;;;;;3.60;3.30;;;;;;;;;;4987438;28;24425;-51
2021/08/04 00:06:37;;;;;;;3.88;2.83;;;;;;;;;;4977888;28;25280;-51
2021/08/04 00:09:02;;;;;;;3.30;3.10;;;;;;;;;;4988833;28;24404;-51
2021/08/04 00:11:27;;;;;;;3.40;3.20;;;;;;;;;;4971812;28;24414;-52
2021/08/04 00:13:52;;;;;;;3.70;3.40;;;;;;;;;;4970645;28;24848;-51
2021/08/04 00:16:18;;;;;;;3.08;2.88;;;;;;;;;;4978221;28;24974;-52
2021/08/04 00:18:43;;;;;;;3.30;3.00;;;;;;;;;;4983378;28;24425;-52
2021/08/04 00:21:08;;;;;;;3.10;2.90;;;;;;;;;;4989030;28;24404;-52
2021/08/04 00:23:33;;;;;;;3.10;2.90;;;;;;;;;;4986562;28;25014;-52
2021/08/04 00:25:58;;;;;;;3.30;3.10;;;;;;;;;;4972233;28;24425;-52
2021/08/04 00:28:24;;;;;;;2.70;2.50;;;;;;;;;;4973924;28;24504;-51
2021/08/04 00:30:49;;;;;;;2.77;2.57;;;;;;;;;;4967885;28;24488;-52
2021/08/04 00:33:14;;;;;;;3.00;2.80;;;;;;;;;;4973119;28;24947;-52
2021/08/04 00:35:39;;;;;;;3.10;2.90;;;;;;;;;;4973037;28;24445;-52
2021/08/04 00:38:11;;;;;;;3.47;3.28;;;;;;;;;;4973361;28;24501;-51
2021/08/04 00:40:37;;;;;;;2.95;2.75;;;;;;;;;;4972475;28;24453;-51
2021/08/04 00:43:02;;;;;;;3.10;2.90;;;;;;;;;;4969026;28;25006;-52
2021/08/04 00:45:27;;;;;;;3.30;3.10;;;;;;;;;;4981521;28;24452;-52
2021/08/04 00:47:52;;;;;;;3.40;3.20;;;;;;;;;;4968301;28;24408;-52
2021/08/04 00:50:17;;;;;;;3.93;3.70;;;;;;;;;;4985455;28;24417;-52
2021/08/04 00:52:43;;;;;;;4.40;4.10;;;;;;;;;;4981818;28;24425;-53
2021/08/04 00:55:08;;;;;;;4.90;4.50;;;;;;;;;;4988465;28;24784;-51
2021/08/04 00:57:34;;;;;;;4.73;4.43;;;;;;;;;;4976295;28;24421;-52
2021/08/04 00:59:59;;;;;;;4.70;4.40;;;;;;;;;;4976287;28;24413;-52
2021/08/04 01:02:30;;;;;;;3.50;3.30;;;;;;;;;;4982401;28;24401;-52
2021/08/04 01:04:58;;;;;;;3.70;3.50;;;;;;;;;;4979795;28;24702;-52
2021/08/04 01:07:27;;;;;;;3.70;3.50;;;;;;;;;;4980836;28;24464;-52
2021/08/04 01:09:54;;;;;;;3.47;3.28;;;;;;;;;;4977580;28;24509;-52
2021/08/04 01:12:21;;;;;;;4.20;3.90;;;;;;;;;;4987888;28;24937;-51
2021/08/04 01:14:47;;;;;;;4.28;3.90;;;;;;;;;;4983558;28;24497;-52
2021/08/04 01:17:12;;;;;;;4.28;3.97;;;;;;;;;;4987586;28;24495;-52
2021/08/04 01:19:52;;;;;;;4.00;3.80;;;;;;;;;;4985850;28;24555;-52
2021/08/04 01:22:33;;;;;;;3.85;3.53;;;;;;;;;;4978663;28;24491;-52
2021/08/04 01:25:02;;;;;;;3.80;3.60;;;;;;;;;;4968197;28;24389;-53
2021/08/04 01:27:28;;;;;;;4.70;4.30;;;;;;;;;;4979131;28;24413;-52
2021/08/04 01:29:54;;;;;;;3.50;3.30;;;;;;;;;;4986128;28;24453;-52
2021/08/04 01:32:20;;;;;;;3.37;3.17;;;;;;;;;;4983793;28;24448;-51
2021/08/04 01:34:46;;;;;;;4.03;3.73;;;;;;;;;;4988113;28;24440;-52
2021/08/04 01:37:11;;;;;;;3.95;3.65;;;;;;;;;;4983045;28;24432;-51
2021/08/04 01:39:37;;;;;;;3.70;3.40;;;;;;;;;;4978359;28;25159;-51
2021/08/04 01:42:03;;;;;;;3.90;3.60;;;;;;;;;;4987726;28;24401;-51
2021/08/04 01:44:28;;;;;;;4.15;3.75;;;;;;;;;;4982587;28;24456;-51
2021/08/04 01:46:54;;;;;;;3.72;3.53;;;;;;;;;;4979406;28;24464;-51
2021/08/04 01:49:20;;;;;;;4.70;4.40;;;;;;;;;;4985905;28;24421;-51
2021/08/04 01:51:46;;;;;;;4.37;3.97;;;;;;;;;;4977826;28;24476;-52
2021/08/04 01:54:11;;;;;;;4.10;3.90;;;;;;;;;;4974438;28;24434;-52
2021/08/04 01:56:38;;;;;;;5.50;4.55;;;;;;;;;;4968415;28;24484;-51
2021/08/04 01:59:03;;;;;;;4.05;3.80;;;;;;;;;;4972376;28;24479;-51
2021/08/04 02:01:28;;;;;;;4.07;3.77;;;;;;;;;;4988628;28;24807;-51
2021/08/04 02:03:53;;;;;;;3.90;3.60;;;;;;;;;;4978254;28;25274;-51
2021/08/04 02:06:22;;;;;;;3.35;3.15;;;;;;;;;;4979992;28;24422;-50
2021/08/04 02:09:07;;;;;;;4.55;4.13;;;;;;;;;;4977875;28;24484;-51
2021/08/04 02:11:44;;;;;;;3.40;3.20;;;;;;;;;;4960138;28;24452;-51
2021/08/04 02:14:18;;;;;;;4.30;4.00;;;;;;;;;;4972240;28;24421;-51
2021/08/04 02:16:54;;;;;;;4.32;4.07;;;;;;;;;;4979629;28;25250;-52
2021/08/04 02:19:27;;;;;;;3.90;3.60;;;;;;;;;;4980613;28;24413;-53
2021/08/04 02:21:55;;;;;;;3.83;3.60;;;;;;;;;;4987498;28;24432;-51
2021/08/04 02:24:23;;;;;;;3.42;3.22;;;;;;;;;;4980895;28;24776;-52
2021/08/04 02:26:48;;;;;;;3.80;3.50;;;;;;;;;;4981212;28;24499;-52
2021/08/04 02:29:14;;;;;;;3.60;3.40;;;;;;;;;;4988145;28;24607;-52
2021/08/04 02:31:41;;;;;;;4.00;3.80;;;;;;;;;;4979315;28;24982;-52
2021/08/04 02:34:06;;;;;;;3.70;3.50;;;;;;;;;;4980509;28;24425;-52
2021/08/04 02:36:31;;;;;;;4.47;4.18;;;;;;;;;;4975408;28;24414;-51
2021/08/04 02:39:01;;;;;;;4.80;4.50;;;;;;;;;;4970597;28;24406;-52
2021/08/04 02:41:26;;;;;;;3.77;3.57;;;;;;;;;;4981898;28;25110;-52
2021/08/04 02:43:51;;;;;;;4.07;3.77;;;;;;;;;;4981536;28;24458;-52
2021/08/04 02:46:16;;;;;;;4.63;4.33;;;;;;;;;;4971143;28;24422;-52
2021/08/04 02:48:42;;;;;;;4.63;4.32;;;;;;;;;;4971323;28;24497;-51
2021/08/04 02:51:12;;;;;;;4.10;3.90;;;;;;;;;;4978380;28;24993;-51
2021/08/04 02:53:37;;;;;;;4.28;3.97;;;;;;;;;;4983799;28;25077;-51
2021/08/04 02:56:04;;;;;;;3.70;3.50;;;;;;;;;;4978265;28;24431;-51
2021/08/04 02:58:35;;;;;;;3.90;3.60;;;;;;;;;;4985473;28;25122;-52
2021/08/04 03:01:01;;;;;;;3.70;3.40;;;;;;;;;;4974775;28;24421;-52
2021/08/04 03:03:26;;;;;;;4.30;4.00;;;;;;;;;;4981875;28;24491;-52
2021/08/04 03:05:51;;;;;;;4.10;3.80;;;;;;;;;;4974969;28;24434;-51
2021/08/04 03:08:16;;;;;;;4.60;4.30;;;;;;;;;;4972110;28;24937;-51
2021/08/04 03:10:41;;;;;;;4.00;3.80;;;;;;;;;;4976222;28;24500;-51
2021/08/04 03:13:07;;;;;;;3.72;3.53;;;;;;;;;;4970462;28;24962;-52
2021/08/04 03:15:33;;;;;;;4.10;3.80;;;;;;;;;;4986026;28;24466;-52
2021/08/04 03:17:58;;;;;;;3.83;3.53;;;;;;;;;;4972349;28;24401;-52
2021/08/04 03:20:23;;;;;;;3.80;3.50;;;;;;;;;;4989768;28;25164;-52
2021/08/04 03:22:49;;;;;;;4.30;3.90;;;;;;;;;;4973035;28;25003;-51
2021/08/04 03:25:15;;;;;;;4.10;3.80;;;;;;;;;;4981912;28;24413;-52
2021/08/04 03:27:40;;;;;;;3.72;3.42;;;;;;;;;;4970746;28;24432;-52
2021/08/04 03:30:06;;;;;;;3.93;3.70;;;;;;;;;;4986800;28;24955;-52
2021/08/04 03:32:31;;;;;;;4.17;3.87;;;;;;;;;;4978420;28;24417;-51
2021/08/04 03:34:56;;;;;;;4.10;3.80;;;;;;;;;;4981198;28;25301;-52
2021/08/04 03:37:21;;;;;;;4.03;3.73;;;;;;;;;;4976826;28;25026;-51
2021/08/04 03:39:46;;;;;;;4.20;3.90;;;;;;;;;;4978584;28;24987;-51
2021/08/04 03:42:15;;;;;;;4.78;4.30;;;;;;;;;;4986090;28;24413;-51
2021/08/04 03:44:41;;;;;;;3.78;3.47;;;;;;;;;;4984673;28;24847;-51
2021/08/04 03:47:06;;;;;;;4.50;4.20;;;;;;;;;;4989208;28;25047;-51
2021/08/04 03:49:31;;;;;;;4.20;4.00;;;;;;;;;;4987369;28;24488;-52
2021/08/04 03:51:56;;;;;;;4.40;4.20;;;;;;;;;;4985287;28;24617;-51
2021/08/04 03:54:21;;;;;;;4.50;4.10;;;;;;;;;;4973128;28;24473;-51
2021/08/04 03:56:46;;;;;;;3.70;3.50;;;;;;;;;;4971025;28;24414;-51
2021/08/04 03:59:11;;;;;;;4.60;4.25;;;;;;;;;;4979792;28;25050;-52
2021/08/04 04:01:37;;;;;;;3.80;3.60;;;;;;;;;;4972380;28;24433;-51
2021/08/04 04:04:02;;;;;;;4.80;4.40;;;;;;;;;;4978089;28;24475;-51
2021/08/04 04:06:27;;;;;;;4.20;3.97;;;;;;;;;;4987262;28;24433;-51
2021/08/04 04:08:52;;;;;;;4.18;3.97;;;;;;;;;;4970018;28;24421;-52
2021/08/04 04:11:17;;;;;;;4.53;4.27;;;;;;;;;;4974996;28;24484;-52
2021/08/04 04:13:42;;;;;;;5.00;4.70;;;;;;;;;;4988325;28;24444;-51
2021/08/04 04:16:07;;;;;;;5.90;5.40;;;;;;;;;;4985704;28;24424;-51
2021/08/04 04:18:33;;;;;;;5.32;4.93;;;;;;;;;;4986916;28;24417;-51
2021/08/04 04:20:58;;;;;;;5.20;4.70;;;;;;;;;;4977553;28;24428;-51
2021/08/04 04:23:23;;;;;;;5.90;5.50;;;;;;;;;;4979041;28;24417;-50
2021/08/04 04:25:49;;;;;;;5.60;5.10;;;;;;;;;;4969476;28;25013;-51
2021/08/04 04:28:14;;;;;;;6.00;5.60;;;;;;;;;;4987114;28;25058;-51
2021/08/04 04:30:39;;;;;;;5.70;5.30;;;;;;;;;;4986452;28;24752;-51
2021/08/04 04:33:04;;;;;;;6.40;5.90;;;;;;;;;;4983608;28;24420;-51
2021/08/04 04:35:29;;;;;;;5.97;5.57;;;;;;;;;;4979525;28;24428;-51
2021/08/04 04:37:54;;;;;;;5.70;5.30;;;;;;;;;;4968835;28;24501;-51
2021/08/04 04:40:20;;;;;;;7.05;6.57;;;;;;;;;;4975012;28;24413;-51
2021/08/04 04:42:45;;;;;;;6.80;6.30;;;;;;;;;;4986725;28;24483;-52
2021/08/04 04:45:10;;;;;;;6.38;5.88;;;;;;;;;;4986657;28;24408;-52
2021/08/04 04:47:35;;;;;;;5.47;5.07;;;;;;;;;;4978503;28;24472;-52
2021/08/04 04:50:00;;;;;;;5.05;4.75;;;;;;;;;;4979262;28;25195;-51
2021/08/04 04:52:26;;;;;;;4.57;4.27;;;;;;;;;;4987551;28;24468;-52
2021/08/04 04:54:51;;;;;;;4.70;4.40;;;;;;;;;;4976229;28;24413;-51
2021/08/04 04:57:16;;;;;;;5.85;5.35;;;;;;;;;;4980392;28;24421;-51
2021/08/04 04:59:41;;;;;;;6.20;5.60;;;;;;;;;;4983251;28;24418;-51
2021/08/04 05:02:06;;;;;;;5.07;4.68;;;;;;;;;;4979579;28;24421;-50
2021/08/04 05:04:31;;;;;;;4.50;4.20;;;;;;;;;;4981928;28;24648;-51
2021/08/04 05:06:57;;;;;;;5.10;4.80;;;;;;;;;;4976129;28;24452;-51
2021/08/04 05:09:22;;;;;;;5.30;4.70;;;;;;;;;;4987960;28;24827;-51
2021/08/04 05:11:47;;;;;;;4.25;3.90;;;;;;;;;;4978947;28;24990;-50
2021/08/04 05:14:12;;;;;;;4.40;4.10;;;;;;;;;;4988086;28;25006;-51
2021/08/04 05:16:37;;;;;;;5.75;5.30;;;;;;;;;;4988237;28;24413;-51
2021/08/04 05:19:02;;;;;;;5.00;4.63;;;;;;;;;;4987812;28;24388;-51
2021/08/04 05:21:27;;;;;;;5.07;4.68;;;;;;;;;;4988331;28;24487;-50
2021/08/04 05:23:53;;;;;;;5.57;5.18;;;;;;;;;;4988170;28;24417;-50
2021/08/04 05:26:18;;;;;;;5.40;5.10;;;;;;;;;;4987654;28;24561;-51
2021/08/04 05:28:43;;;;;;;5.97;5.50;;;;;;;;;;4987708;28;24926;-51
2021/08/04 05:31:08;;;;;;;6.20;5.70;;;;;;;;;;4981331;28;24412;-51
2021/08/04 05:33:33;;;;;;;6.00;5.60;;;;;;;;;;4980626;28;24503;-51
2021/08/04 05:35:58;;;;;;;5.75;5.35;;;;;;;;;;4971219;28;24454;-51
2021/08/04 05:38:23;;;;;;;5.93;5.43;;;;;;;;;;4973155;28;24441;-52
2021/08/04 05:40:49;;;;;;;5.38;4.90;;;;;;;;;;4985297;28;24536;-52
2021/08/04 05:43:14;;;;;;;5.67;5.17;;;;;;;;;;4986790;28;24432;-52
2021/08/04 05:45:39;;;;;;;7.00;6.40;;;;;;;;;;4988080;28;24425;-52
2021/08/04 05:48:05;;;;;;;5.90;5.50;;;;;;;;;;4987599;28;24412;-52
2021/08/04 05:50:30;;;;;;;5.70;5.30;;;;;;;;;;4990560;28;24531;-52
2021/08/04 05:52:55;;;;;;;6.30;5.70;;;;;;;;;;4987994;28;24433;-52
2021/08/04 05:55:21;;;;;;;4.37;4.10;;;;;;;;;;4988370;28;24878;-52
2021/08/04 05:57:46;;;;;;;5.50;5.20;;;;;;;;;;4980753;28;24960;-52
2021/08/04 06:00:11;;;;;;;5.20;4.90;;;;;;;;;;4987556;28;24452;-52
2021/08/04 06:02:36;;;;;;;5.47;5.07;;;;;;;;;;4988074;28;24421;-52
2021/08/04 06:05:02;;;;;;;4.93;4.63;;;;;;;;;;4987357;28;24513;-52
2021/08/04 06:07:28;;;;;;;5.03;4.63;;;;;;;;;;4988036;28;24460;-52
2021/08/04 06:09:53;;;;;;;5.70;5.10;;;;;;;;;;4968789;28;24485;-52
2021/08/04 06:12:18;;;;;;;4.67;4.27;;;;;;;;;;4984307;28;24978;-52
2021/08/04 06:14:43;;;;;;;5.03;4.50;;;;;;;;;;4988044;28;24963;-52
2021/08/04 06:17:09;;;;;;;4.10;3.80;;;;;;;;;;4986852;28;24517;-51
2021/08/04 06:19:34;;;;;;;4.40;4.10;;;;;;;;;;4987685;28;24401;-52
2021/08/04 06:21:59;;;;;;;4.10;3.80;;;;;;;;;;4987668;28;24910;-52
2021/08/04 06:24:24;;;;;;;4.10;3.80;;;;;;;;;;4987167;28;24505;-52
2021/08/04 06:26:49;;;;;;;3.70;3.40;;;;;;;;;;4986884;28;24464;-52
2021/08/04 06:29:14;;;;;;;4.43;4.00;;;;;;;;;;4987365;28;24413;-52
2021/08/04 06:31:40;;;;;;;4.10;3.80;;;;;;;;;;4987091;28;24815;-52
2021/08/04 06:34:05;;;;;;;3.77;3.47;;;;;;;;;;4991021;28;24508;-53
2021/08/04 06:36:30;;;;;;;3.60;3.40;;;;;;;;;;4989409;28;24504;-52
2021/08/04 06:38:55;;;;;;;3.50;3.30;;;;;;;;;;4984305;28;24425;-52
2021/08/04 06:41:20;;;;;;;3.80;3.60;;;;;;;;;;4977730;28;24432;-55
2021/08/04 06:43:49;;;;;;;4.10;3.70;;;;;;;;;;4985408;28;24417;-53
2021/08/04 06:46:14;;;;;;;3.90;3.60;;;;;;;;;;4979942;28;24784;-52
2021/08/04 06:48:39;;;;;;;4.37;3.97;;;;;;;;;;4972532;28;25026;-53
2021/08/04 06:51:05;;;;;;;3.57;3.37;;;;;;;;;;4976153;28;24504;-52
2021/08/04 06:53:30;;;;;;;4.40;4.10;;;;;;;;;;4986665;28;24491;-53
2021/08/04 06:55:55;;;;;;;3.70;3.40;;;;;;;;;;4983143;28;24981;-53
2021/08/04 06:58:20;;;;;;;4.03;3.72;;;;;;;;;;4977740;28;24520;-53
2021/08/04 07:00:45;;;;;;;3.60;3.40;;;;;;;;;;4971680;28;24456;-53
2021/08/04 07:03:10;;;;;;;3.77;3.50;;;;;;;;;;4969689;28;24400;-52
2021/08/04 07:05:36;;;;;;;3.45;3.25;;;;;;;;;;4970282;28;24414;-52
2021/08/04 07:08:01;;;;;;;3.40;3.20;;;;;;;;;;4955479;28;24876;-52
2021/08/04 07:10:26;;;;;;;4.10;3.80;;;;;;;;;;4983882;28;24408;-52
2021/08/04 07:12:51;;;;;;;3.47;3.28;;;;;;;;;;4989797;28;24763;-52
2021/08/04 07:15:16;;;;;;;4.00;3.80;;;;;;;;;;4975814;28;24402;-53
2021/08/04 07:17:45;;;;;;;2.92;2.72;;;;;;;;;;4970390;28;24413;-53
2021/08/04 07:20:11;;;;;;;3.50;3.30;;;;;;;;;;4969708;28;24456;-52
2021/08/04 07:22:36;;;;;;;3.33;3.13;;;;;;;;;;4970428;28;24433;-52
2021/08/04 07:25:02;;;;;;;3.58;3.38;;;;;;;;;;4970261;28;24453;-53
2021/08/04 07:27:27;;;;;;;3.30;3.00;;;;;;;;;;4983567;28;24429;-52
2021/08/04 07:29:52;;;;;;;3.10;2.80;;;;;;;;;;4992865;28;24719;-52
2021/08/04 07:32:17;;;;;;;2.80;2.60;;;;;;;;;;5006889;28;24560;-52
2021/08/04 07:34:42;;;;;;;2.92;2.72;;;;;;;;;;5008698;28;24401;-53
2021/08/04 07:37:08;;;;;;;2.55;2.35;;;;;;;;;;5008635;28;24953;-53
2021/08/04 07:39:33;;;;;;;2.75;2.50;;;;;;;;;;5008279;28;24478;-52
2021/08/04 07:41:58;;;;;;;3.10;2.90;;;;;;;;;;5008688;28;25044;-53
2021/08/04 07:44:24;;;;;;;3.20;2.80;;;;;;;;;;5008505;28;25057;-52
2021/08/04 07:46:49;;;;;;;3.00;2.80;;;;;;;;;;5008398;28;24416;-53
2021/08/04 07:49:14;;;;;;;2.60;2.40;;;;;;;;;;5008287;28;24419;-52
2021/08/04 07:51:39;;;;;;;2.50;2.30;;;;;;;;;;5008295;28;24389;-52
2021/08/04 07:54:04;;;;;;;2.30;2.10;;;;;;;;;;5008404;28;24420;-52
2021/08/04 07:56:29;;;;;;;2.60;2.40;;;;;;;;;;5008470;28;24459;-53
2021/08/04 07:58:57;;;;;;;2.30;2.20;;;;;;;;;;5007429;28;24415;-58
2021/08/04 08:01:22;;;;;;;2.60;2.40;;;;;;;;;;5008263;28;24495;-53
2021/08/04 08:03:47;;;;;;;4.65;2.92;;;;;;;;;;5008230;28;24838;-52
2021/08/04 08:06:12;;;;;;;2.40;2.20;;;;;;;;;;5008153;28;24458;-52
2021/08/04 08:08:37;;;;;;;3.90;2.63;;;;;;;;;;5006175;28;24481;-53
2021/08/04 08:11:04;;;;;;;3.20;3.00;;;;;;;;;;4988842;28;24593;-53
2021/08/04 08:13:29;;;;;;;2.60;2.40;;;;;;;;;;4988713;28;24435;-52
2021/08/04 08:15:54;;;;;;;2.65;2.45;;;;;;;;;;4988436;28;24432;-52
2021/08/04 08:18:19;;;;;;;3.03;2.83;;;;;;;;;;4988705;28;24405;-52
2021/08/04 08:20:45;;;;;;;2.70;2.50;;;;;;;;;;4988471;28;24389;-52
2021/08/04 08:23:10;;;;;;;2.87;2.67;;;;;;;;;;4988484;28;24438;-52
2021/08/04 08:25:36;;;;;;;2.22;2.13;;;;;;;;;;4988556;28;24429;-53
2021/08/04 08:28:01;;;;;;;2.50;2.30;;;;;;;;;;4988603;28;24400;-53
2021/08/04 08:30:27;;;;;;;2.80;2.60;;;;;;;;;;4984313;28;24448;-52
2021/08/04 08:32:53;;;;;;;2.70;2.50;;;;;;;;;;4988112;28;24432;-52
2021/08/04 08:35:18;;;;;;;2.70;2.50;;;;;;;;;;4988254;28;24397;-52
2021/08/04 08:37:45;;;;;;;2.30;2.20;;;;;;;;;;4988605;28;24511;-52
2021/08/04 08:40:11;;;;;;;2.80;2.60;;;;;;;;;;4988169;28;24427;-52
2021/08/04 08:42:37;;;;;;;2.85;2.65;;;;;;;;;;4983703;28;25046;-51
2021/08/04 08:45:02;;;;;;;3.03;2.83;;;;;;;;;;4987782;28;24957;-52
2021/08/04 08:47:28;;;;;;;2.50;2.40;;;;;;;;;;4987364;28;24421;-52
2021/08/04 08:49:53;;;;;;;2.75;2.55;;;;;;;;;;4987534;28;24768;-52
2021/08/04 08:52:18;;;;;;;2.63;2.43;;;;;;;;;;4987424;28;24389;-52
2021/08/04 08:54:44;;;;;;;2.70;2.50;;;;;;;;;;4988221;28;24397;-53
2021/08/04 08:57:09;;;;;;;2.90;2.70;;;;;;;;;;4988018;28;24400;-51
2021/08/04 08:59:34;;;;;;;2.87;2.57;;;;;;;;;;4987629;28;24544;-53
2021/08/04 09:02:01;;;;;;;2.70;2.50;;;;;;;;;;4987635;28;24454;-52
2021/08/04 09:04:26;;;;;;;2.95;2.72;;;;;;;;;;4987868;28;24938;-52
2021/08/04 09:06:55;;;;;;;3.17;2.97;;;;;;;;;;4987946;28;24417;-52
2021/08/04 09:09:20;;;;;;;3.40;3.20;;;;;;;;;;4987124;28;24409;-53
2021/08/04 09:11:46;;;;;;;2.80;2.50;;;;;;;;;;4987901;28;24795;-53
2021/08/04 09:14:12;;;;;;;2.80;2.60;;;;;;;;;;4987762;28;24962;-53
2021/08/04 09:16:39;;;;;;;2.10;2.00;;;;;;;;;;4987636;28;25034;-52
2021/08/04 09:19:15;;;;;;;2.10;2.00;;;;;;;;;;4987622;28;24943;-53
2021/08/04 09:21:40;;;;;;;2.42;2.20;;;;;;;;;;4987437;28;24409;-53
2021/08/04 09:24:06;;;;;;;2.60;2.23;;;;;;;;;;4987970;28;24392;-53
2021/08/04 09:26:31;;;;;;;2.90;2.70;;;;;;;;;;4987446;28;24431;-52
2021/08/04 09:29:01;;;;;;;3.20;3.00;;;;;;;;;;4987751;28;24409;-52
2021/08/04 09:31:53;;;;;;;3.00;2.80;;;;;;;;;;4987617;28;24393;-53
2021/08/04 09:34:34;;;;;;;2.42;2.22;;;;;;;;;;4983890;28;25026;-52
2021/08/04 09:37:02;;;;;;;2.78;2.58;;;;;;;;;;4987377;28;24791;-53
2021/08/04 09:39:27;;;;;;;3.45;2.80;;;;;;;;;;4987277;28;24416;-52
2021/08/04 09:41:52;;;;;;;2.23;2.13;;;;;;;;;;4987510;28;24411;-52
2021/08/04 09:44:17;;;;;;;2.00;1.90;;;;;;;;;;4987504;28;24409;-52
2021/08/04 09:46:42;;;;;;;2.47;2.38;;;;;;;;;;4987482;28;24423;-53
2021/08/04 09:49:08;;;;;;;2.10;2.00;;;;;;;;;;4987454;28;24420;-53
2021/08/04 09:51:34;;;;;;;2.20;2.00;;;;;;;;;;4987125;28;24409;-52
2021/08/04 09:54:12;;;;;;;2.20;2.00;;;;;;;;;;4987136;28;24791;-53
2021/08/04 09:56:48;;;;;;;2.40;2.30;;;;;;;;;;4987355;28;24424;-53
2021/08/04 09:59:14;;;;;;;2.40;2.30;;;;;;;;;;4987102;28;24417;-53
2021/08/04 10:01:40;;;;;;;2.90;2.07;;;;;;;;;;4987168;28;24424;-53
2021/08/04 10:04:07;;;;;;;2.20;2.10;;;;;;;;;;4987281;28;24389;-54
2021/08/04 10:06:33;;;;;;;1.85;1.75;;;;;;;;;;4987171;28;24412;-53
2021/08/04 10:09:00;;;;;;;1.95;1.85;;;;;;;;;;4986991;28;24416;-54
2021/08/04 10:11:25;;;;;;;2.20;1.90;;;;;;;;;;4986977;28;24927;-53
2021/08/04 10:13:53;;;;;;;2.00;1.90;;;;;;;;;;4987241;28;24403;-54
2021/08/04 10:16:18;;;;;;;2.20;2.00;;;;;;;;;;4987249;28;24421;-55
2021/08/04 10:18:44;;;;;;;2.10;1.90;;;;;;;;;;4986833;28;24467;-54
2021/08/04 10:21:12;;;;;;;1.88;1.77;;;;;;;;;;4987488;28;24392;-54
2021/08/04 10:23:44;;;;;;;2.03;1.90;;;;;;;;;;4990848;28;24431;-54
2021/08/04 10:26:11;;;;;;;2.40;1.85;;;;;;;;;;4990606;28;24989;-54
2021/08/04 10:28:37;;;;;;;2.00;1.90;;;;;;;;;;4990310;28;24424;-54
2021/08/04 10:31:02;;;;;;;1.50;1.40;;;;;;;;;;4990448;28;24389;-54
2021/08/04 10:33:27;;;;;;;2.20;2.10;;;;;;;;;;4990525;28;24381;-52
2021/08/04 10:35:56;;;;;;;1.80;1.70;;;;;;;;;;4990595;28;24401;-53
2021/08/04 10:38:23;;;;;;;2.00;1.90;;;;;;;;;;4990303;28;24428;-52
2021/08/04 10:41:06;;;;;;;2.30;2.10;;;;;;;;;;4990010;28;24551;-52
2021/08/04 10:43:35;;;;;;;2.00;1.80;;;;;;;;;;4987713;28;24524;-52
2021/08/04 10:46:00;;;;;;;1.90;1.80;;;;;;;;;;4988173;28;24436;-53
2021/08/04 10:48:25;;;;;;;1.50;1.40;;;;;;;;;;4989708;28;24407;-53
2021/08/04 10:51:09;;;;;;;1.97;1.87;;;;;;;;;;4989964;28;24397;-52
2021/08/04 10:53:34;;;;;;;2.30;2.10;;;;;;;;;;4989851;28;24528;-52
2021/08/04 10:55:59;;;;;;;1.90;1.80;;;;;;;;;;4989958;28;24484;-53
2021/08/04 10:58:26;;;;;;;1.60;1.50;;;;;;;;;;4989659;28;24448;-53
2021/08/04 11:00:52;;;;;;;2.28;2.17;;;;;;;;;;4989900;28;24968;-53
2021/08/04 11:03:30;;;;;;;2.10;2.00;;;;;;;;;;4989890;28;24504;-53
2021/08/04 11:06:02;;;;;;;2.20;2.00;;;;;;;;;;4989956;28;24424;-53
2021/08/04 11:08:27;;;;;;;2.47;2.28;;;;;;;;;;4989798;28;24397;-53
2021/08/04 11:10:52;;;;;;;2.35;2.17;;;;;;;;;;4989529;28;24404;-53
2021/08/04 11:13:36;;;;;;;2.80;2.60;;;;;;;;;;4989728;28;24488;-53
2021/08/04 11:16:21;;;;;;;2.47;2.38;;;;;;;;;;4985276;28;24460;-53
2021/08/04 11:18:58;;;;;;;2.30;2.20;;;;;;;;;;4983457;28;24471;-53
2021/08/04 11:21:24;;;;;;;2.60;2.50;;;;;;;;;;4987083;28;24428;-53
2021/08/04 11:23:49;;;;;;;2.97;2.78;;;;;;;;;;4970555;28;24500;-53
2021/08/04 11:26:25;;;;;;;2.60;2.40;;;;;;;;;;4970204;28;24418;-53
2021/08/04 11:28:51;;;;;;;2.28;2.17;;;;;;;;;;4969907;28;24397;-53
2021/08/04 11:31:17;;;;;;;2.30;2.20;;;;;;;;;;4969855;28;24469;-53
2021/08/04 11:33:43;;;;;;;2.10;2.00;;;;;;;;;;4972703;28;24402;-53
2021/08/04 11:36:12;;;;;;;1.80;1.70;;;;;;;;;;4989270;28;24400;-52
2021/08/04 11:38:41;;;;;;;1.70;1.60;;;;;;;;;;4989364;28;24392;-52
2021/08/04 11:41:25;;;;;;;1.77;1.67;;;;;;;;;;4989230;28;24389;-53
2021/08/04 11:43:57;;;;;;;1.70;1.60;;;;;;;;;;4989386;28;24408;-53
2021/08/04 11:46:39;;;;;;;1.50;1.40;;;;;;;;;;4988860;28;24424;-53
2021/08/04 11:49:06;;;;;;;1.70;1.60;;;;;;;;;;4989357;28;24396;-53
2021/08/04 11:51:39;;;;;;;1.80;1.70;;;;;;;;;;4988708;28;24397;-52
2021/08/04 11:54:05;;;;;;;1.60;1.50;;;;;;;;;;4989285;28;24424;-53
2021/08/04 11:56:30;;;;;;;1.80;1.70;;;;;;;;;;4988926;28;24678;-53
2021/08/04 11:58:59;;;;;;;1.70;1.60;;;;;;;;;;4989027;28;24404;-53
2021/08/04 12:01:24;;;;;;;1.50;1.40;;;;;;;;;;4988986;28;24396;-53
2021/08/04 12:04:01;;;;;;;1.80;1.70;;;;;;;;;;4988736;28;24397;-53
2021/08/04 12:06:27;;;;;;;1.60;1.50;;;;;;;;;;4988649;28;24429;-54
2021/08/04 12:08:52;;;;;;;1.40;1.30;;;;;;;;;;4989130;28;24484;-53
2021/08/04 12:11:17;;;;;;;1.30;1.30;;;;;;;;;;4976758;28;24585;-53
2021/08/04 12:14:02;;;;;;;1.30;1.30;;;;;;;;;;4972354;28;24775;-53
2021/08/04 12:16:27;;;;;;;1.40;1.30;;;;;;;;;;4997567;28;24412;-53
2021/08/04 12:18:52;;;;;;;1.50;1.40;;;;;;;;;;5008119;28;24396;-53
2021/08/04 12:21:17;;;;;;;1.60;1.50;;;;;;;;;;5008052;28;24392;-54
2021/08/04 12:23:42;;;;;;;1.60;1.50;;;;;;;;;;5007729;28;24859;-53
2021/08/04 12:26:07;;;;;;;2.50;1.50;;;;;;;;;;5007579;28;24409;-53
2021/08/04 12:28:33;;;;;;;1.88;1.77;;;;;;;;;;5007754;28;24400;-54
2021/08/04 12:30:58;;;;;;;1.92;1.83;;;;;;;;;;5007833;28;24395;-53
2021/08/04 12:33:23;;;;;;;1.90;1.80;;;;;;;;;;5007757;28;24399;-53
2021/08/04 12:36:07;;;;;;;2.00;1.90;;;;;;;;;;5007746;28;24938;-53
2021/08/04 12:38:34;;;;;;;1.60;1.50;;;;;;;;;;5007181;28;24393;-53
2021/08/04 12:40:59;;;;;;;1.60;1.50;;;;;;;;;;5007723;28;24405;-53
2021/08/04 12:43:31;;;;;;;1.30;1.30;;;;;;;;;;5007645;28;24391;-53
2021/08/04 12:45:57;;;;;;;1.10;1.10;;;;;;;;;;5007276;28;24511;-53
2021/08/04 12:48:42;;;;;;;1.50;1.40;;;;;;;;;;5007548;28;24480;-53
2021/08/04 12:51:12;;;;;;;1.60;1.50;;;;;;;;;;5007324;28;24535;-54
2021/08/04 12:53:38;;;;;;;1.10;1.10;;;;;;;;;;5007459;28;24920;-53
2021/08/04 12:56:10;;;;;;;1.33;1.30;;;;;;;;;;5007641;28;24479;-54
2021/08/04 12:58:54;;;;;;;1.30;1.30;;;;;;;;;;5007360;28;24419;-53
2021/08/04 13:01:21;;;;;;;1.48;1.40;;;;;;;;;;5007460;28;24396;-53
2021/08/04 13:03:46;;;;;;;1.20;1.20;;;;;;;;;;5007169;28;24419;-54
2021/08/04 13:06:11;;;;;;;1.27;1.17;;;;;;;;;;4999724;28;25053;-53
2021/08/04 13:08:37;;;;;;;1.60;1.50;;;;;;;;;;4987722;28;24397;-53
2021/08/04 13:11:02;;;;;;;1.50;1.40;;;;;;;;;;4987680;28;24385;-53
2021/08/04 13:13:28;;;;;;;1.40;1.30;;;;;;;;;;4987780;28;24425;-53
2021/08/04 13:15:54;;;;;;;1.27;1.27;;;;;;;;;;4987283;28;24531;-53
2021/08/04 13:18:33;;;;;;;1.50;1.40;;;;;;;;;;4987608;28;24768;-53
2021/08/04 13:21:10;;;;;;;1.60;1.30;;;;;;;;;;4987587;28;24467;-53
2021/08/04 13:23:35;;;;;;;1.70;1.60;;;;;;;;;;4987667;28;24796;-53
2021/08/04 13:26:00;;;;;;;1.43;1.33;;;;;;;;;;4987705;28;25016;-53
2021/08/04 13:28:34;;;;;;;1.70;1.60;;;;;;;;;;4987268;28;24433;-54
2021/08/04 13:31:00;;;;;;;1.42;1.30;;;;;;;;;;4987563;28;24397;-53
2021/08/04 13:33:26;;;;;;;1.50;1.40;;;;;;;;;;4987836;28;24389;-54
2021/08/04 13:35:52;;;;;;;1.60;1.50;;;;;;;;;;4987684;28;24764;-53
2021/08/04 13:38:17;;;;;;;1.67;1.58;;;;;;;;;;4987781;28;25049;-53
2021/08/04 13:40:43;;;;;;;1.80;1.70;;;;;;;;;;4987483;28;24420;-53
2021/08/04 13:43:08;;;;;;;1.60;1.50;;;;;;;;;;4987424;28;24408;-53
2021/08/04 13:45:34;;;;;;;1.60;1.50;;;;;;;;;;4987648;28;24405;-53
2021/08/04 13:47:59;;;;;;;1.70;1.60;;;;;;;;;;4987321;28;24509;-54
2021/08/04 13:50:25;;;;;;;1.80;1.70;;;;;;;;;;4987523;28;24389;-54
2021/08/04 13:52:54;;;;;;;1.30;1.30;;;;;;;;;;4987300;28;24976;-53
2021/08/04 13:55:22;;;;;;;1.70;1.60;;;;;;;;;;4988385;28;24748;-53
2021/08/04 13:57:48;;;;;;;1.60;1.50;;;;;;;;;;4990905;28;24858;-53
2021/08/04 14:00:17;;;;;;;1.83;1.73;;;;;;;;;;4991225;28;24967;-53
2021/08/04 14:02:43;;;;;;;1.60;1.50;;;;;;;;;;4990994;28;24401;-53
2021/08/04 14:05:10;;;;;;;1.60;1.50;;;;;;;;;;4991526;28;24420;-53
2021/08/04 14:07:35;;;;;;;1.50;1.40;;;;;;;;;;4991008;28;24993;-53
2021/08/04 14:10:01;;;;;;;1.70;1.50;;;;;;;;;;4990715;28;24413;-53
2021/08/04 14:12:26;;;;;;;1.37;1.27;;;;;;;;;;4990938;28;24404;-53
2021/08/04 14:14:51;;;;;;;1.40;1.30;;;;;;;;;;4991077;28;24409;-53
2021/08/04 14:17:17;;;;;;;1.40;1.30;;;;;;;;;;4986495;28;24432;-53
2021/08/04 14:19:43;;;;;;;1.52;1.42;;;;;;;;;;4988469;28;24436;-53
2021/08/04 14:22:08;;;;;;;1.63;1.53;;;;;;;;;;4990572;28;24492;-53
2021/08/04 14:24:34;;;;;;;1.70;1.60;;;;;;;;;;4990154;28;24580;-53
2021/08/04 14:26:59;;;;;;;1.50;1.40;;;;;;;;;;4990231;28;24416;-53
2021/08/04 14:29:24;;;;;;;1.60;1.50;;;;;;;;;;4990674;28;24392;-53
2021/08/04 14:31:51;;;;;;;1.90;1.70;;;;;;;;;;4990264;28;24436;-53
2021/08/04 14:34:16;;;;;;;1.70;1.60;;;;;;;;;;4990438;28;24417;-53
2021/08/04 14:36:41;;;;;;;1.50;1.40;;;;;;;;;;4990335;28;24536;-53
2021/08/04 14:39:07;;;;;;;1.40;1.30;;;;;;;;;;4990347;28;24431;-53
2021/08/04 14:41:32;;;;;;;1.47;1.30;;;;;;;;;;4990138;28;24455;-53